sensor_id;sensor_type;location;lat;lon;timestamp;P1;durP1;ratioP1;P2;durP2;ratioP2
3131;SDS011;62090;52.330;9.104;2022-11-13T00:02:40;12.00;;;9.90;;
3131;SDS011;62090;52.330;9.104;2022-11-13T00:05:32;12.70;;;10.87;;
3131;SDS011;62090;52.330;9.104;2022-11-13T00:08:20;13.00;;;11.53;;
3131;SDS011;62090;52.330;9.104;2022-11-13T00:11:10;13.37;;;10.47;;
3131;SDS011;62090;52.330;9.104;2022-11-13T00:13:59;15.30;;;10.87;;
3131;SDS011;62090;52.330;9.104;2022-11-13T00:16:48;14.63;;;11.00;;
3131;SDS011;62090;52.330;9.104;2022-11-13T00:19:36;14.53;;;10.30;;
3131;SDS011;62090;52.330;9.104;2022-11-13T00:22:27;14.23;;;11.20;;
3131;SDS011;62090;52.330;9.104;2022-11-13T00:25:15;16.10;;;10.40;;
3131;SDS011;62090;52.330;9.104;2022-11-13T00:28:04;11.63;;;9.90;;
3131;SDS011;62090;52.330;9.104;2022-11-13T00:30:56;10.77;;;9.60;;
3131;SDS011;62090;52.330;9.104;2022-11-13T00:33:45;12.53;;;9.60;;
3131;SDS011;62090;52.330;9.104;2022-11-13T00:36:54;16.00;;;10.40;;
3131;SDS011;62090;52.330;9.104;2022-11-13T00:39:45;11.60;;;9.73;;
3131;SDS011;62090;52.330;9.104;2022-11-13T00:42:33;14.90;;;9.70;;
3131;SDS011;62090;52.330;9.104;2022-11-13T00:45:21;13.13;;;9.80;;
3131;SDS011;62090;52.330;9.104;2022-11-13T00:48:09;12.57;;;9.77;;
3131;SDS011;62090;52.330;9.104;2022-11-13T00:50:58;11.20;;;9.33;;
3131;SDS011;62090;52.330;9.104;2022-11-13T00:53:46;13.63;;;9.13;;
3131;SDS011;62090;52.330;9.104;2022-11-13T00:56:37;13.43;;;9.17;;
3131;SDS011;62090;52.330;9.104;2022-11-13T00:59:25;10.23;;;8.40;;
3131;SDS011;62090;52.330;9.104;2022-11-13T01:02:13;14.90;;;9.57;;
3131;SDS011;62090;52.330;9.104;2022-11-13T01:05:02;12.17;;;8.17;;
3131;SDS011;62090;52.330;9.104;2022-11-13T01:07:51;12.30;;;8.77;;
3131;SDS011;62090;52.330;9.104;2022-11-13T01:10:40;11.50;;;9.47;;
3131;SDS011;62090;52.330;9.104;2022-11-13T01:13:40;13.50;;;9.67;;
3131;SDS011;62090;52.330;9.104;2022-11-13T01:16:30;11.50;;;9.00;;
3131;SDS011;62090;52.330;9.104;2022-11-13T01:19:18;13.10;;;9.30;;
3131;SDS011;62090;52.330;9.104;2022-11-13T01:22:06;12.03;;;9.63;;
3131;SDS011;62090;52.330;9.104;2022-11-13T01:24:55;12.17;;;9.50;;
3131;SDS011;62090;52.330;9.104;2022-11-13T01:27:43;10.53;;;8.67;;
3131;SDS011;62090;52.330;9.104;2022-11-13T01:30:34;14.67;;;9.97;;
3131;SDS011;62090;52.330;9.104;2022-11-13T01:33:22;12.87;;;9.43;;
3131;SDS011;62090;52.330;9.104;2022-11-13T01:36:11;12.07;;;9.27;;
3131;SDS011;62090;52.330;9.104;2022-11-13T01:39:01;13.60;;;9.20;;
3131;SDS011;62090;52.330;9.104;2022-11-13T01:41:50;12.10;;;9.37;;
3131;SDS011;62090;52.330;9.104;2022-11-13T01:44:45;11.80;;;9.30;;
3131;SDS011;62090;52.330;9.104;2022-11-13T01:47:37;12.30;;;8.93;;
3131;SDS011;62090;52.330;9.104;2022-11-13T01:50:26;10.30;;;8.70;;
3131;SDS011;62090;52.330;9.104;2022-11-13T01:53:14;13.00;;;9.80;;
3131;SDS011;62090;52.330;9.104;2022-11-13T01:56:03;11.27;;;9.40;;
3131;SDS011;62090;52.330;9.104;2022-11-13T01:58:54;10.33;;;8.57;;
3131;SDS011;62090;52.330;9.104;2022-11-13T02:01:48;14.27;;;10.27;;
3131;SDS011;62090;52.330;9.104;2022-11-13T02:04:40;12.50;;;9.37;;
3131;SDS011;62090;52.330;9.104;2022-11-13T02:07:29;11.50;;;8.37;;
3131;SDS011;62090;52.330;9.104;2022-11-13T02:10:18;12.40;;;8.60;;
3131;SDS011;62090;52.330;9.104;2022-11-13T02:13:06;14.00;;;7.73;;
3131;SDS011;62090;52.330;9.104;2022-11-13T02:15:55;14.03;;;8.47;;
3131;SDS011;62090;52.330;9.104;2022-11-13T02:18:44;9.53;;;7.80;;
3131;SDS011;62090;52.330;9.104;2022-11-13T02:21:37;8.53;;;6.90;;
3131;SDS011;62090;52.330;9.104;2022-11-13T02:24:36;10.37;;;7.50;;
3131;SDS011;62090;52.330;9.104;2022-11-13T02:27:31;8.83;;;6.00;;
3131;SDS011;62090;52.330;9.104;2022-11-13T02:30:24;6.87;;;6.17;;
3131;SDS011;62090;52.330;9.104;2022-11-13T02:33:21;10.43;;;7.67;;
3131;SDS011;62090;52.330;9.104;2022-11-13T02:36:11;7.50;;;6.63;;
3131;SDS011;62090;52.330;9.104;2022-11-13T02:39:02;6.97;;;6.20;;
3131;SDS011;62090;52.330;9.104;2022-11-13T02:41:57;6.23;;;5.70;;
3131;SDS011;62090;52.330;9.104;2022-11-13T02:44:45;6.40;;;5.80;;
3131;SDS011;62090;52.330;9.104;2022-11-13T02:47:33;6.57;;;5.60;;
3131;SDS011;62090;52.330;9.104;2022-11-13T02:50:22;8.73;;;6.27;;
3131;SDS011;62090;52.330;9.104;2022-11-13T02:53:11;6.57;;;5.90;;
3131;SDS011;62090;52.330;9.104;2022-11-13T02:55:59;6.10;;;5.50;;
3131;SDS011;62090;52.330;9.104;2022-11-13T02:58:50;5.70;;;5.20;;
3131;SDS011;62090;52.330;9.104;2022-11-13T03:01:38;6.30;;;5.70;;
3131;SDS011;62090;52.330;9.104;2022-11-13T03:04:30;6.87;;;6.20;;
3131;SDS011;62090;52.330;9.104;2022-11-13T03:07:38;6.50;;;5.80;;
3131;SDS011;62090;52.330;9.104;2022-11-13T03:10:27;8.57;;;6.67;;
3131;SDS011;62090;52.330;9.104;2022-11-13T03:13:15;6.90;;;6.30;;
3131;SDS011;62090;52.330;9.104;2022-11-13T03:16:07;6.20;;;5.60;;
3131;SDS011;62090;52.330;9.104;2022-11-13T03:18:57;7.87;;;6.40;;
3131;SDS011;62090;52.330;9.104;2022-11-13T03:21:45;6.73;;;5.70;;
3131;SDS011;62090;52.330;9.104;2022-11-13T03:24:33;7.63;;;6.13;;
3131;SDS011;62090;52.330;9.104;2022-11-13T03:27:21;6.70;;;5.43;;
3131;SDS011;62090;52.330;9.104;2022-11-13T03:30:10;6.60;;;5.30;;
3131;SDS011;62090;52.330;9.104;2022-11-13T03:33:01;6.27;;;5.67;;
3131;SDS011;62090;52.330;9.104;2022-11-13T03:35:50;6.53;;;5.53;;
3131;SDS011;62090;52.330;9.104;2022-11-13T03:38:38;6.77;;;6.13;;
3131;SDS011;62090;52.330;9.104;2022-11-13T03:41:26;6.83;;;5.83;;
3131;SDS011;62090;52.330;9.104;2022-11-13T03:44:14;7.53;;;6.60;;
3131;SDS011;62090;52.330;9.104;2022-11-13T03:47:03;7.57;;;6.77;;
3131;SDS011;62090;52.330;9.104;2022-11-13T03:49:54;7.57;;;6.47;;
3131;SDS011;62090;52.330;9.104;2022-11-13T03:52:42;5.80;;;5.23;;
3131;SDS011;62090;52.330;9.104;2022-11-13T03:55:30;6.27;;;5.67;;
3131;SDS011;62090;52.330;9.104;2022-11-13T03:58:19;7.13;;;6.03;;
3131;SDS011;62090;52.330;9.104;2022-11-13T04:01:07;5.97;;;5.37;;
3131;SDS011;62090;52.330;9.104;2022-11-13T04:03:55;6.10;;;4.90;;
3131;SDS011;62090;52.330;9.104;2022-11-13T04:06:46;6.27;;;5.37;;
3131;SDS011;62090;52.330;9.104;2022-11-13T04:09:34;8.73;;;5.33;;
3131;SDS011;62090;52.330;9.104;2022-11-13T04:12:22;8.23;;;6.37;;
3131;SDS011;62090;52.330;9.104;2022-11-13T04:15:11;6.40;;;5.50;;
3131;SDS011;62090;52.330;9.104;2022-11-13T04:17:59;5.90;;;5.30;;
3131;SDS011;62090;52.330;9.104;2022-11-13T04:20:47;6.70;;;6.00;;
3131;SDS011;62090;52.330;9.104;2022-11-13T04:23:38;6.80;;;5.57;;
3131;SDS011;62090;52.330;9.104;2022-11-13T04:26:27;6.70;;;5.70;;
3131;SDS011;62090;52.330;9.104;2022-11-13T04:29:15;5.90;;;5.30;;
3131;SDS011;62090;52.330;9.104;2022-11-13T04:32:03;6.50;;;4.93;;
3131;SDS011;62090;52.330;9.104;2022-11-13T04:34:52;4.97;;;4.30;;
3131;SDS011;62090;52.330;9.104;2022-11-13T04:37:40;5.60;;;3.60;;
3131;SDS011;62090;52.330;9.104;2022-11-13T04:40:31;8.20;;;5.57;;
3131;SDS011;62090;52.330;9.104;2022-11-13T04:43:20;5.00;;;4.50;;
3131;SDS011;62090;52.330;9.104;2022-11-13T04:46:06;5.40;;;4.90;;
3131;SDS011;62090;52.330;9.104;2022-11-13T04:48:54;8.67;;;6.70;;
3131;SDS011;62090;52.330;9.104;2022-11-13T04:51:43;9.87;;;7.40;;
3131;SDS011;62090;52.330;9.104;2022-11-13T04:54:31;6.53;;;5.73;;
3131;SDS011;62090;52.330;9.104;2022-11-13T04:57:22;8.67;;;7.20;;
3131;SDS011;62090;52.330;9.104;2022-11-13T05:00:11;8.50;;;7.00;;
3131;SDS011;62090;52.330;9.104;2022-11-13T05:03:00;7.30;;;6.23;;
3131;SDS011;62090;52.330;9.104;2022-11-13T05:05:49;7.87;;;6.10;;
3131;SDS011;62090;52.330;9.104;2022-11-13T05:08:37;6.90;;;6.20;;
3131;SDS011;62090;52.330;9.104;2022-11-13T05:11:26;8.90;;;7.00;;
3131;SDS011;62090;52.330;9.104;2022-11-13T05:14:16;6.40;;;5.77;;
3131;SDS011;62090;52.330;9.104;2022-11-13T05:17:05;7.17;;;6.00;;
3131;SDS011;62090;52.330;9.104;2022-11-13T05:19:55;7.83;;;6.77;;
3131;SDS011;62090;52.330;9.104;2022-11-13T05:22:43;7.63;;;6.03;;
3131;SDS011;62090;52.330;9.104;2022-11-13T05:25:32;6.70;;;5.90;;
3131;SDS011;62090;52.330;9.104;2022-11-13T05:28:20;7.80;;;6.90;;
3131;SDS011;62090;52.330;9.104;2022-11-13T05:31:11;6.53;;;5.87;;
3131;SDS011;62090;52.330;9.104;2022-11-13T05:34:02;8.10;;;6.93;;
3131;SDS011;62090;52.330;9.104;2022-11-13T05:36:51;6.43;;;5.50;;
3131;SDS011;62090;52.330;9.104;2022-11-13T05:39:39;8.00;;;6.10;;
3131;SDS011;62090;52.330;9.104;2022-11-13T05:42:27;6.70;;;5.90;;
3131;SDS011;62090;52.330;9.104;2022-11-13T05:45:15;6.50;;;5.70;;
3131;SDS011;62090;52.330;9.104;2022-11-13T05:48:06;7.43;;;5.50;;
3131;SDS011;62090;52.330;9.104;2022-11-13T05:50:59;10.10;;;6.67;;
3131;SDS011;62090;52.330;9.104;2022-11-13T05:53:48;7.80;;;5.77;;
3131;SDS011;62090;52.330;9.104;2022-11-13T05:56:37;9.70;;;6.50;;
3131;SDS011;62090;52.330;9.104;2022-11-13T05:59:25;6.43;;;5.50;;
3131;SDS011;62090;52.330;9.104;2022-11-13T06:02:13;7.50;;;5.77;;
3131;SDS011;62090;52.330;9.104;2022-11-13T06:05:05;6.43;;;5.50;;
3131;SDS011;62090;52.330;9.104;2022-11-13T06:07:54;8.70;;;7.40;;
3131;SDS011;62090;52.330;9.104;2022-11-13T06:10:42;6.63;;;5.93;;
3131;SDS011;62090;52.330;9.104;2022-11-13T06:13:30;7.57;;;6.20;;
3131;SDS011;62090;52.330;9.104;2022-11-13T06:16:19;6.00;;;5.27;;
3131;SDS011;62090;52.330;9.104;2022-11-13T06:19:09;5.90;;;5.07;;
3131;SDS011;62090;52.330;9.104;2022-11-13T06:22:01;6.13;;;5.50;;
3131;SDS011;62090;52.330;9.104;2022-11-13T06:24:49;6.57;;;5.57;;
3131;SDS011;62090;52.330;9.104;2022-11-13T06:27:37;5.77;;;5.20;;
3131;SDS011;62090;52.330;9.104;2022-11-13T06:30:26;6.43;;;5.00;;
3131;SDS011;62090;52.330;9.104;2022-11-13T06:33:14;5.47;;;4.97;;
3131;SDS011;62090;52.330;9.104;2022-11-13T06:36:02;6.23;;;5.37;;
3131;SDS011;62090;52.330;9.104;2022-11-13T06:38:54;5.77;;;5.17;;
3131;SDS011;62090;52.330;9.104;2022-11-13T06:41:43;6.60;;;5.50;;
3131;SDS011;62090;52.330;9.104;2022-11-13T06:44:31;6.40;;;5.67;;
3131;SDS011;62090;52.330;9.104;2022-11-13T06:47:19;5.43;;;4.93;;
3131;SDS011;62090;52.330;9.104;2022-11-13T06:50:08;5.57;;;5.07;;
3131;SDS011;62090;52.330;9.104;2022-11-13T06:52:56;5.90;;;5.10;;
3131;SDS011;62090;52.330;9.104;2022-11-13T06:55:48;6.17;;;5.57;;
3131;SDS011;62090;52.330;9.104;2022-11-13T06:58:38;5.87;;;5.07;;
3131;SDS011;62090;52.330;9.104;2022-11-13T07:01:27;9.40;;;6.07;;
3131;SDS011;62090;52.330;9.104;2022-11-13T07:04:18;8.13;;;6.53;;
3131;SDS011;62090;52.330;9.104;2022-11-13T07:07:06;9.10;;;7.80;;
3131;SDS011;62090;52.330;9.104;2022-11-13T07:09:55;11.90;;;8.80;;
3131;SDS011;62090;52.330;9.104;2022-11-13T07:12:45;12.57;;;9.70;;
3131;SDS011;62090;52.330;9.104;2022-11-13T07:15:39;15.30;;;10.60;;
3131;SDS011;62090;52.330;9.104;2022-11-13T07:18:28;13.50;;;10.80;;
3131;SDS011;62090;52.330;9.104;2022-11-13T07:21:17;14.80;;;11.70;;
3131;SDS011;62090;52.330;9.104;2022-11-13T07:24:06;15.07;;;11.40;;
3131;SDS011;62090;52.330;9.104;2022-11-13T07:27:01;15.77;;;11.87;;
3131;SDS011;62090;52.330;9.104;2022-11-13T07:29:51;16.63;;;10.63;;
3131;SDS011;62090;52.330;9.104;2022-11-13T07:32:47;17.10;;;11.77;;
3131;SDS011;62090;52.330;9.104;2022-11-13T07:35:36;16.57;;;12.87;;
3131;SDS011;62090;52.330;9.104;2022-11-13T07:38:24;15.90;;;11.47;;
3131;SDS011;62090;52.330;9.104;2022-11-13T07:41:13;17.57;;;12.10;;
3131;SDS011;62090;52.330;9.104;2022-11-13T07:44:01;12.40;;;10.57;;
3131;SDS011;62090;52.330;9.104;2022-11-13T07:46:56;19.40;;;11.70;;
3131;SDS011;62090;52.330;9.104;2022-11-13T07:49:44;18.60;;;13.63;;
3131;SDS011;62090;52.330;9.104;2022-11-13T07:52:32;20.53;;;14.20;;
3131;SDS011;62090;52.330;9.104;2022-11-13T07:55:21;18.30;;;13.40;;
3131;SDS011;62090;52.330;9.104;2022-11-13T07:58:10;17.70;;;14.03;;
3131;SDS011;62090;52.330;9.104;2022-11-13T08:01:02;19.87;;;12.43;;
3131;SDS011;62090;52.330;9.104;2022-11-13T08:03:54;20.57;;;14.50;;
3131;SDS011;62090;52.330;9.104;2022-11-13T08:06:43;23.20;;;15.33;;
3131;SDS011;62090;52.330;9.104;2022-11-13T08:09:31;19.93;;;14.17;;
3131;SDS011;62090;52.330;9.104;2022-11-13T08:12:19;22.30;;;15.20;;
3131;SDS011;62090;52.330;9.104;2022-11-13T08:15:09;16.87;;;13.20;;
3131;SDS011;62090;52.330;9.104;2022-11-13T08:17:58;17.10;;;13.37;;
3131;SDS011;62090;52.330;9.104;2022-11-13T08:20:51;30.03;;;15.13;;
3131;SDS011;62090;52.330;9.104;2022-11-13T08:23:40;17.87;;;13.70;;
3131;SDS011;62090;52.330;9.104;2022-11-13T08:26:29;17.27;;;13.07;;
3131;SDS011;62090;52.330;9.104;2022-11-13T08:29:17;16.40;;;12.70;;
3131;SDS011;62090;52.330;9.104;2022-11-13T08:32:05;16.57;;;13.47;;
3131;SDS011;62090;52.330;9.104;2022-11-13T08:34:54;17.37;;;13.20;;
3131;SDS011;62090;52.330;9.104;2022-11-13T08:37:45;19.80;;;13.90;;
3131;SDS011;62090;52.330;9.104;2022-11-13T08:40:34;15.73;;;12.47;;
3131;SDS011;62090;52.330;9.104;2022-11-13T08:43:23;19.30;;;13.70;;
3131;SDS011;62090;52.330;9.104;2022-11-13T08:46:11;18.40;;;11.90;;
3131;SDS011;62090;52.330;9.104;2022-11-13T08:48:59;19.67;;;12.90;;
3131;SDS011;62090;52.330;9.104;2022-11-13T08:51:49;18.30;;;14.30;;
3131;SDS011;62090;52.330;9.104;2022-11-13T08:54:41;17.30;;;12.40;;
3131;SDS011;62090;52.330;9.104;2022-11-13T08:57:30;19.67;;;13.67;;
3131;SDS011;62090;52.330;9.104;2022-11-13T09:00:18;18.10;;;12.80;;
3131;SDS011;62090;52.330;9.104;2022-11-13T09:03:09;17.87;;;12.27;;
3131;SDS011;62090;52.330;9.104;2022-11-13T09:05:58;15.33;;;11.60;;
3131;SDS011;62090;52.330;9.104;2022-11-13T09:08:47;13.60;;;11.60;;
3131;SDS011;62090;52.330;9.104;2022-11-13T09:11:38;15.73;;;12.10;;
3131;SDS011;62090;52.330;9.104;2022-11-13T09:14:27;17.80;;;11.90;;
3131;SDS011;62090;52.330;9.104;2022-11-13T09:17:19;14.77;;;11.20;;
3131;SDS011;62090;52.330;9.104;2022-11-13T09:20:07;14.43;;;10.90;;
3131;SDS011;62090;52.330;9.104;2022-11-13T09:23:00;13.73;;;10.50;;
3131;SDS011;62090;52.330;9.104;2022-11-13T09:25:49;14.23;;;10.83;;
3131;SDS011;62090;52.330;9.104;2022-11-13T09:28:40;15.13;;;10.30;;
3131;SDS011;62090;52.330;9.104;2022-11-13T09:31:32;15.07;;;10.70;;
3131;SDS011;62090;52.330;9.104;2022-11-13T09:34:24;12.93;;;9.47;;
3131;SDS011;62090;52.330;9.104;2022-11-13T09:37:13;15.53;;;9.67;;
3131;SDS011;62090;52.330;9.104;2022-11-13T09:40:01;11.60;;;9.00;;
3131;SDS011;62090;52.330;9.104;2022-11-13T09:42:52;10.50;;;9.07;;
3131;SDS011;62090;52.330;9.104;2022-11-13T09:48:43;11.90;;;9.00;;
3131;SDS011;62090;52.330;9.104;2022-11-13T09:51:36;10.83;;;8.27;;
3131;SDS011;62090;52.330;9.104;2022-11-13T09:54:26;10.67;;;8.60;;
3131;SDS011;62090;52.330;9.104;2022-11-13T09:57:18;10.20;;;7.97;;
3131;SDS011;62090;52.330;9.104;2022-11-13T10:00:14;11.10;;;7.97;;
3131;SDS011;62090;52.330;9.104;2022-11-13T10:03:17;11.93;;;7.83;;
3131;SDS011;62090;52.330;9.104;2022-11-13T10:06:44;14.13;;;8.00;;
3131;SDS011;62090;52.330;9.104;2022-11-13T10:09:49;12.13;;;7.83;;
3131;SDS011;62090;52.330;9.104;2022-11-13T10:12:50;16.00;;;8.23;;
3131;SDS011;62090;52.330;9.104;2022-11-13T10:15:42;11.57;;;8.20;;
3131;SDS011;62090;52.330;9.104;2022-11-13T10:18:36;10.13;;;8.20;;
3131;SDS011;62090;52.330;9.104;2022-11-13T10:21:28;11.30;;;8.43;;
3131;SDS011;62090;52.330;9.104;2022-11-13T10:24:23;10.70;;;8.13;;
3131;SDS011;62090;52.330;9.104;2022-11-13T10:27:15;10.83;;;8.13;;
3131;SDS011;62090;52.330;9.104;2022-11-13T10:30:09;9.63;;;7.57;;
3131;SDS011;62090;52.330;9.104;2022-11-13T10:33:04;15.30;;;7.13;;
3131;SDS011;62090;52.330;9.104;2022-11-13T10:36:00;11.13;;;8.00;;
3131;SDS011;62090;52.330;9.104;2022-11-13T10:38:59;14.33;;;8.07;;
3131;SDS011;62090;52.330;9.104;2022-11-13T10:41:50;13.93;;;8.60;;
3131;SDS011;62090;52.330;9.104;2022-11-13T10:44:50;13.27;;;8.67;;
3131;SDS011;62090;52.330;9.104;2022-11-13T10:47:44;10.43;;;8.03;;
3131;SDS011;62090;52.330;9.104;2022-11-13T10:50:52;12.10;;;9.60;;
3131;SDS011;62090;52.330;9.104;2022-11-13T10:53:44;14.90;;;9.17;;
3131;SDS011;62090;52.330;9.104;2022-11-13T10:56:34;11.17;;;7.67;;
3131;SDS011;62090;52.330;9.104;2022-11-13T10:59:23;12.00;;;8.30;;
3131;SDS011;62090;52.330;9.104;2022-11-13T11:02:16;9.87;;;7.27;;
3131;SDS011;62090;52.330;9.104;2022-11-13T11:05:14;11.57;;;7.43;;
3131;SDS011;62090;52.330;9.104;2022-11-13T11:08:05;13.20;;;7.27;;
3131;SDS011;62090;52.330;9.104;2022-11-13T11:11:00;8.50;;;7.00;;
3131;SDS011;62090;52.330;9.104;2022-11-13T11:14:09;11.90;;;8.40;;
3131;SDS011;62090;52.330;9.104;2022-11-13T11:17:06;8.70;;;6.97;;
3131;SDS011;62090;52.330;9.104;2022-11-13T11:19:59;15.70;;;7.43;;
3131;SDS011;62090;52.330;9.104;2022-11-13T11:22:56;10.90;;;7.53;;
3131;SDS011;62090;52.330;9.104;2022-11-13T11:25:51;11.20;;;7.00;;
3131;SDS011;62090;52.330;9.104;2022-11-13T11:28:48;14.63;;;8.10;;
3131;SDS011;62090;52.330;9.104;2022-11-13T11:31:40;8.03;;;6.50;;
3131;SDS011;62090;52.330;9.104;2022-11-13T11:34:39;10.37;;;7.93;;
3131;SDS011;62090;52.330;9.104;2022-11-13T11:37:32;13.67;;;6.73;;
3131;SDS011;62090;52.330;9.104;2022-11-13T11:40:29;11.50;;;6.93;;
3131;SDS011;62090;52.330;9.104;2022-11-13T11:43:24;10.60;;;6.30;;
3131;SDS011;62090;52.330;9.104;2022-11-13T11:46:23;11.50;;;8.30;;
3131;SDS011;62090;52.330;9.104;2022-11-13T11:49:13;12.13;;;8.13;;
3131;SDS011;62090;52.330;9.104;2022-11-13T11:52:05;12.17;;;8.83;;
3131;SDS011;62090;52.330;9.104;2022-11-13T11:55:24;14.23;;;10.37;;
3131;SDS011;62090;52.330;9.104;2022-11-13T11:58:36;15.53;;;11.00;;
3131;SDS011;62090;52.330;9.104;2022-11-13T12:01:59;16.90;;;12.20;;
3131;SDS011;62090;52.330;9.104;2022-11-13T12:05:11;16.63;;;11.53;;
3131;SDS011;62090;52.330;9.104;2022-11-13T12:08:13;18.07;;;11.30;;
3131;SDS011;62090;52.330;9.104;2022-11-13T12:11:11;15.80;;;12.27;;
3131;SDS011;62090;52.330;9.104;2022-11-13T12:14:06;14.43;;;11.17;;
3131;SDS011;62090;52.330;9.104;2022-11-13T12:20:08;15.27;;;11.87;;
3131;SDS011;62090;52.330;9.104;2022-11-13T12:23:13;19.23;;;12.03;;
3131;SDS011;62090;52.330;9.104;2022-11-13T12:26:12;26.10;;;10.90;;
3131;SDS011;62090;52.330;9.104;2022-11-13T12:29:10;13.07;;;9.73;;
3131;SDS011;62090;52.330;9.104;2022-11-13T12:32:17;13.10;;;9.90;;
3131;SDS011;62090;52.330;9.104;2022-11-13T12:35:18;18.43;;;10.57;;
3131;SDS011;62090;52.330;9.104;2022-11-13T12:38:11;17.97;;;11.73;;
3131;SDS011;62090;52.330;9.104;2022-11-13T12:41:10;16.60;;;12.20;;
3131;SDS011;62090;52.330;9.104;2022-11-13T12:44:19;17.50;;;11.93;;
3131;SDS011;62090;52.330;9.104;2022-11-13T12:47:12;17.87;;;13.00;;
3131;SDS011;62090;52.330;9.104;2022-11-13T12:50:20;21.57;;;13.50;;
3131;SDS011;62090;52.330;9.104;2022-11-13T12:53:22;20.90;;;13.87;;
3131;SDS011;62090;52.330;9.104;2022-11-13T12:56:14;18.70;;;13.50;;
3131;SDS011;62090;52.330;9.104;2022-11-13T12:59:11;22.40;;;14.97;;
3131;SDS011;62090;52.330;9.104;2022-11-13T13:02:21;23.30;;;16.30;;
3131;SDS011;62090;52.330;9.104;2022-11-13T13:05:32;22.83;;;14.73;;
3131;SDS011;62090;52.330;9.104;2022-11-13T13:08:45;24.43;;;16.63;;
3131;SDS011;62090;52.330;9.104;2022-11-13T13:14:54;24.43;;;14.90;;
3131;SDS011;62090;52.330;9.104;2022-11-13T13:18:05;25.73;;;16.10;;
3131;SDS011;62090;52.330;9.104;2022-11-13T13:21:07;26.20;;;16.97;;
3131;SDS011;62090;52.330;9.104;2022-11-13T13:24:05;26.80;;;16.37;;
3131;SDS011;62090;52.330;9.104;2022-11-13T13:26:54;28.77;;;16.23;;
3131;SDS011;62090;52.330;9.104;2022-11-13T13:29:44;31.43;;;18.77;;
3131;SDS011;62090;52.330;9.104;2022-11-13T13:32:33;25.90;;;18.47;;
3131;SDS011;62090;52.330;9.104;2022-11-13T13:35:31;25.73;;;18.50;;
3131;SDS011;62090;52.330;9.104;2022-11-13T13:38:30;27.33;;;19.27;;
3131;SDS011;62090;52.330;9.104;2022-11-13T13:41:28;29.10;;;19.53;;
3131;SDS011;62090;52.330;9.104;2022-11-13T13:44:29;28.67;;;19.90;;
3131;SDS011;62090;52.330;9.104;2022-11-13T13:47:31;30.10;;;20.60;;
3131;SDS011;62090;52.330;9.104;2022-11-13T13:50:27;34.83;;;23.30;;
3131;SDS011;62090;52.330;9.104;2022-11-13T13:53:22;31.30;;;22.20;;
3131;SDS011;62090;52.330;9.104;2022-11-13T13:59:12;34.43;;;23.87;;
3131;SDS011;62090;52.330;9.104;2022-11-13T14:02:03;36.23;;;24.43;;
3131;SDS011;62090;52.330;9.104;2022-11-13T14:05:15;42.13;;;25.83;;
3131;SDS011;62090;52.330;9.104;2022-11-13T14:08:15;38.57;;;26.27;;
3131;SDS011;62090;52.330;9.104;2022-11-13T14:11:15;38.03;;;26.27;;
3131;SDS011;62090;52.330;9.104;2022-11-13T14:14:15;41.53;;;27.97;;
3131;SDS011;62090;52.330;9.104;2022-11-13T14:17:05;38.40;;;26.47;;
3131;SDS011;62090;52.330;9.104;2022-11-13T14:19:58;45.87;;;29.23;;
3131;SDS011;62090;52.330;9.104;2022-11-13T14:22:50;41.40;;;29.20;;
3131;SDS011;62090;52.330;9.104;2022-11-13T14:25:46;42.57;;;29.10;;
3131;SDS011;62090;52.330;9.104;2022-11-13T14:28:43;49.73;;;31.77;;
3131;SDS011;62090;52.330;9.104;2022-11-13T14:31:38;51.50;;;31.67;;
3131;SDS011;62090;52.330;9.104;2022-11-13T14:34:27;45.47;;;31.10;;
3131;SDS011;62090;52.330;9.104;2022-11-13T14:37:20;51.17;;;33.57;;
3131;SDS011;62090;52.330;9.104;2022-11-13T14:40:17;47.00;;;32.23;;
3131;SDS011;62090;52.330;9.104;2022-11-13T14:43:13;54.17;;;34.90;;
3131;SDS011;62090;52.330;9.104;2022-11-13T14:46:23;49.33;;;33.90;;
3131;SDS011;62090;52.330;9.104;2022-11-13T14:49:24;50.17;;;33.33;;
3131;SDS011;62090;52.330;9.104;2022-11-13T14:52:21;53.13;;;35.50;;
3131;SDS011;62090;52.330;9.104;2022-11-13T14:55:20;47.73;;;34.10;;
3131;SDS011;62090;52.330;9.104;2022-11-13T14:58:10;50.77;;;34.50;;
3131;SDS011;62090;52.330;9.104;2022-11-13T15:01:11;52.70;;;35.40;;
3131;SDS011;62090;52.330;9.104;2022-11-13T15:04:04;56.20;;;35.97;;
3131;SDS011;62090;52.330;9.104;2022-11-13T15:06:58;53.20;;;37.17;;
3131;SDS011;62090;52.330;9.104;2022-11-13T15:09:48;61.67;;;38.40;;
3131;SDS011;62090;52.330;9.104;2022-11-13T15:12:39;57.67;;;38.73;;
3131;SDS011;62090;52.330;9.104;2022-11-13T15:15:27;57.23;;;37.90;;
3131;SDS011;62090;52.330;9.104;2022-11-13T15:21:14;60.43;;;38.07;;
3131;SDS011;62090;52.330;9.104;2022-11-13T15:24:05;65.37;;;41.00;;
3131;SDS011;62090;52.330;9.104;2022-11-13T15:26:54;61.70;;;40.30;;
3131;SDS011;62090;52.330;9.104;2022-11-13T15:32:39;66.53;;;39.37;;
3131;SDS011;62090;52.330;9.104;2022-11-13T15:35:28;64.57;;;41.10;;
3131;SDS011;62090;52.330;9.104;2022-11-13T15:41:22;65.93;;;38.67;;
3131;SDS011;62090;52.330;9.104;2022-11-13T15:44:18;66.60;;;39.23;;
3131;SDS011;62090;52.330;9.104;2022-11-13T15:47:11;64.47;;;37.80;;
3131;SDS011;62090;52.330;9.104;2022-11-13T15:50:11;64.87;;;36.87;;
3131;SDS011;62090;52.330;9.104;2022-11-13T15:53:02;62.97;;;36.43;;
3131;SDS011;62090;52.330;9.104;2022-11-13T15:55:59;62.60;;;36.30;;
3131;SDS011;62090;52.330;9.104;2022-11-13T15:58:51;60.07;;;36.10;;
3131;SDS011;62090;52.330;9.104;2022-11-13T16:01:42;57.00;;;35.70;;
3131;SDS011;62090;52.330;9.104;2022-11-13T16:04:31;55.47;;;34.90;;
3131;SDS011;62090;52.330;9.104;2022-11-13T16:07:44;51.80;;;33.23;;
3131;SDS011;62090;52.330;9.104;2022-11-13T16:13:30;56.03;;;34.23;;
3131;SDS011;62090;52.330;9.104;2022-11-13T16:16:20;57.93;;;35.53;;
3131;SDS011;62090;52.330;9.104;2022-11-13T16:19:11;60.47;;;35.07;;
3131;SDS011;62090;52.330;9.104;2022-11-13T16:22:10;65.17;;;36.90;;
3131;SDS011;62090;52.330;9.104;2022-11-13T16:25:04;63.10;;;36.33;;
3131;SDS011;62090;52.330;9.104;2022-11-13T16:27:54;63.37;;;35.50;;
3131;SDS011;62090;52.330;9.104;2022-11-13T16:30:46;64.73;;;36.30;;
3131;SDS011;62090;52.330;9.104;2022-11-13T16:33:37;68.70;;;40.07;;
3131;SDS011;62090;52.330;9.104;2022-11-13T16:36:26;59.53;;;35.87;;
3131;SDS011;62090;52.330;9.104;2022-11-13T16:39:15;59.03;;;34.87;;
3131;SDS011;62090;52.330;9.104;2022-11-13T16:42:03;57.27;;;35.27;;
3131;SDS011;62090;52.330;9.104;2022-11-13T16:44:52;67.10;;;37.13;;
3131;SDS011;62090;52.330;9.104;2022-11-13T16:47:44;60.80;;;35.43;;
3131;SDS011;62090;52.330;9.104;2022-11-13T16:50:35;68.57;;;39.10;;
3131;SDS011;62090;52.330;9.104;2022-11-13T16:53:25;59.97;;;36.60;;
3131;SDS011;62090;52.330;9.104;2022-11-13T16:56:17;62.30;;;37.10;;
3131;SDS011;62090;52.330;9.104;2022-11-13T16:59:12;66.00;;;38.87;;
3131;SDS011;62090;52.330;9.104;2022-11-13T17:02:10;63.40;;;37.23;;
3131;SDS011;62090;52.330;9.104;2022-11-13T17:05:04;72.13;;;39.30;;
3131;SDS011;62090;52.330;9.104;2022-11-13T17:07:56;65.90;;;39.50;;
3131;SDS011;62090;52.330;9.104;2022-11-13T17:10:46;68.63;;;39.97;;
3131;SDS011;62090;52.330;9.104;2022-11-13T17:13:47;73.00;;;40.97;;
3131;SDS011;62090;52.330;9.104;2022-11-13T17:16:39;68.93;;;40.73;;
3131;SDS011;62090;52.330;9.104;2022-11-13T17:19:27;76.00;;;40.30;;
3131;SDS011;62090;52.330;9.104;2022-11-13T17:22:21;78.47;;;42.67;;
3131;SDS011;62090;52.330;9.104;2022-11-13T17:25:14;78.30;;;39.80;;
3131;SDS011;62090;52.330;9.104;2022-11-13T17:28:04;70.97;;;40.03;;
3131;SDS011;62090;52.330;9.104;2022-11-13T17:30:59;80.17;;;41.73;;
3131;SDS011;62090;52.330;9.104;2022-11-13T17:33:50;76.23;;;38.50;;
3131;SDS011;62090;52.330;9.104;2022-11-13T17:36:40;74.20;;;40.17;;
3131;SDS011;62090;52.330;9.104;2022-11-13T17:39:33;85.50;;;43.10;;
3131;SDS011;62090;52.330;9.104;2022-11-13T17:42:22;78.57;;;40.43;;